createdAt,value
2019-03-13T00:01:05.804Z,-1.60
2019-03-13T00:03:36.333Z,-1.70
2019-03-13T00:06:06.763Z,-1.80
2019-03-13T00:08:37.233Z,-1.90
2019-03-13T00:11:07.673Z,-1.90
2019-03-13T00:13:38.218Z,-1.70
2019-03-13T00:16:08.721Z,-1.80
2019-03-13T00:18:39.231Z,-2.00
2019-03-13T00:21:09.664Z,-1.80
2019-03-13T00:23:40.181Z,-1.90
2019-03-13T00:26:10.553Z,-1.80
2019-03-13T00:28:41.051Z,-1.90
2019-03-13T00:31:11.573Z,-2.00
2019-03-13T00:33:41.999Z,-1.80
2019-03-13T00:36:12.425Z,-2.00
2019-03-13T00:38:42.845Z,-1.90
2019-03-13T00:41:13.255Z,-2.10
2019-03-13T00:43:43.686Z,-2.00
2019-03-13T00:46:14.229Z,-1.80
2019-03-13T00:48:44.658Z,-2.00
2019-03-13T00:51:15.097Z,-1.70
2019-03-13T00:53:45.583Z,-1.80
2019-03-13T00:56:16.134Z,-1.80
2019-03-13T00:58:46.656Z,-1.90
2019-03-13T01:01:42.115Z,-2.00
2019-03-13T01:04:40.389Z,-1.90
2019-03-13T01:07:11.998Z,-1.90
2019-03-13T01:09:42.418Z,-1.70
2019-03-13T01:12:12.852Z,-1.90
2019-03-13T01:14:43.310Z,-1.70
2019-03-13T01:17:13.727Z,-1.80
2019-03-13T01:19:44.171Z,-1.60
2019-03-13T01:22:14.586Z,-1.90
2019-03-13T01:24:45.010Z,-1.90
2019-03-13T01:27:15.425Z,-1.70
2019-03-13T01:29:45.840Z,-1.70
2019-03-13T01:32:53.258Z,-1.80
2019-03-13T01:35:42.522Z,-1.80
2019-03-13T01:38:12.958Z,-2.00
2019-03-13T01:40:43.481Z,-1.90
2019-03-13T01:43:13.933Z,-2.00
2019-03-13T01:45:44.347Z,-1.70
2019-03-13T01:48:14.759Z,-2.00
2019-03-13T01:50:45.197Z,-1.80
2019-03-13T01:53:15.622Z,-1.90
2019-03-13T01:55:46.146Z,-1.90
2019-03-13T01:58:16.590Z,-1.70
2019-03-13T02:00:47.128Z,-1.70
2019-03-13T02:03:17.661Z,-1.70
2019-03-13T02:05:48.181Z,-1.70
2019-03-13T02:08:18.713Z,-1.70
2019-03-13T02:10:49.312Z,-2.00
2019-03-13T02:13:19.746Z,-2.00
2019-03-13T02:15:51.182Z,-1.80
2019-03-13T02:18:21.633Z,-1.80
2019-03-13T02:20:52.061Z,-1.90
2019-03-13T02:23:22.518Z,-1.90
2019-03-13T02:25:52.974Z,-1.70
2019-03-13T02:28:23.441Z,-1.80
2019-03-13T02:30:54.086Z,-1.90
2019-03-13T02:33:24.518Z,-1.80
2019-03-13T02:35:54.995Z,-1.80
2019-03-13T02:38:25.432Z,-1.90
2019-03-13T02:40:55.878Z,-1.80
2019-03-13T02:43:26.290Z,-1.70
2019-03-13T02:45:56.731Z,-1.80
2019-03-13T02:48:27.284Z,-1.50
2019-03-13T02:50:57.758Z,-1.40
2019-03-13T02:53:28.211Z,-1.30
2019-03-13T02:55:58.634Z,-1.00
2019-03-13T02:58:29.095Z,-1.20
2019-03-13T03:01:17.034Z,-1.10
2019-03-13T03:03:51.098Z,-0.80
2019-03-13T03:06:21.597Z,-0.60
2019-03-13T03:08:52.067Z,-0.80
2019-03-13T03:11:22.892Z,-0.50
2019-03-13T03:13:53.322Z,-0.70
2019-03-13T03:16:23.764Z,-0.70
2019-03-13T03:18:54.224Z,-0.60
2019-03-13T03:21:24.710Z,-0.50
2019-03-13T03:23:55.114Z,-0.60
2019-03-13T03:26:25.511Z,-0.40
2019-03-13T03:28:55.982Z,-0.40
2019-03-13T03:31:27.375Z,-0.40
2019-03-13T03:34:02.475Z,-0.20
2019-03-13T03:36:33.145Z,-0.40
2019-03-13T03:39:05.285Z,-0.10
2019-03-13T03:41:35.703Z,-0.20
2019-03-13T03:44:06.274Z,-0.10
2019-03-13T03:46:36.695Z,-0.10
2019-03-13T03:49:07.147Z,0.10
2019-03-13T03:51:37.577Z,0.30
2019-03-13T03:54:08.040Z,0.10
2019-03-13T03:56:38.427Z,0.30
2019-03-13T03:59:08.871Z,0.30
2019-03-13T04:01:39.282Z,0.30
2019-03-13T04:04:09.811Z,0.40
2019-03-13T04:06:40.322Z,0.20
2019-03-13T04:09:10.770Z,0.40
2019-03-13T04:11:41.178Z,0.40
2019-03-13T04:14:11.637Z,0.20
2019-03-13T04:16:42.105Z,0.30
2019-03-13T04:19:12.529Z,0.30
2019-03-13T04:21:42.979Z,0.50
2019-03-13T04:24:13.499Z,0.50
2019-03-13T04:26:46.177Z,0.50
2019-03-13T04:29:16.716Z,0.40
2019-03-13T04:31:47.226Z,0.40
2019-03-13T04:34:17.638Z,0.50
2019-03-13T04:36:48.175Z,0.40
2019-03-13T04:39:18.602Z,0.50
2019-03-13T04:41:49.063Z,0.60
2019-03-13T04:44:19.505Z,0.70
2019-03-13T04:46:49.990Z,0.70
2019-03-13T04:49:20.502Z,0.60
2019-03-13T04:51:51.029Z,0.60
2019-03-13T04:54:21.541Z,0.80
2019-03-13T04:56:51.942Z,0.80
2019-03-13T04:59:22.347Z,0.60
2019-03-13T05:01:52.778Z,0.80
2019-03-13T05:04:23.211Z,0.90
2019-03-13T05:06:53.630Z,0.80
2019-03-13T05:09:36.426Z,1.00
2019-03-13T05:12:06.841Z,0.90
2019-03-13T05:14:37.302Z,1.00
2019-03-13T05:17:07.739Z,1.10
2019-03-13T05:19:38.180Z,1.20
2019-03-13T05:22:08.629Z,1.30
2019-03-13T05:24:39.164Z,1.20
2019-03-13T05:27:09.591Z,1.10
2019-03-13T05:29:40.106Z,1.60
2019-03-13T05:32:10.566Z,1.40
2019-03-13T05:34:41.014Z,1.60
2019-03-13T05:37:11.459Z,1.60
2019-03-13T05:39:41.870Z,1.60
2019-03-13T05:42:12.317Z,1.70
2019-03-13T05:44:42.730Z,1.70
2019-03-13T05:47:13.214Z,1.50
2019-03-13T05:49:43.621Z,1.80
2019-03-13T05:52:14.064Z,1.60
2019-03-13T05:54:44.502Z,1.70
2019-03-13T05:57:14.922Z,1.80
2019-03-13T05:59:45.434Z,1.90
2019-03-13T06:02:15.856Z,2.00
2019-03-13T06:04:46.315Z,1.90
2019-03-13T06:07:16.819Z,2.40
2019-03-13T06:09:47.223Z,2.10
2019-03-13T06:12:17.689Z,2.60
2019-03-13T06:14:48.162Z,2.50
2019-03-13T06:17:18.603Z,2.40
2019-03-13T06:19:49.038Z,2.60
2019-03-13T06:22:19.463Z,2.60
2019-03-13T06:24:50.021Z,2.70
2019-03-13T06:27:20.494Z,2.70
2019-03-13T06:29:50.917Z,2.90
2019-03-13T06:32:21.373Z,2.90
2019-03-13T06:34:51.802Z,3.10
2019-03-13T06:37:22.254Z,3.10
2019-03-13T06:39:52.666Z,3.10
2019-03-13T06:42:23.154Z,3.30
2019-03-13T06:44:53.623Z,3.50
2019-03-13T06:47:25.222Z,3.30
2019-03-13T06:49:55.859Z,3.50
2019-03-13T06:52:26.295Z,3.50
2019-03-13T06:54:56.754Z,3.60
2019-03-13T06:57:27.206Z,3.80
2019-03-13T07:00:14.931Z,3.50
2019-03-13T07:03:10.222Z,3.60
2019-03-13T07:06:17.610Z,3.80
2019-03-13T07:09:09.979Z,3.70
2019-03-13T07:12:02.106Z,3.80
2019-03-13T07:14:51.411Z,3.80
2019-03-13T07:17:46.850Z,3.90
2019-03-13T07:20:27.722Z,3.90
2019-03-13T07:23:26.149Z,3.90
2019-03-13T07:26:14.216Z,3.80
2019-03-13T07:29:12.288Z,4.20
2019-03-13T07:31:46.966Z,4.30
2019-03-13T07:34:39.265Z,4.50
2019-03-13T07:37:34.174Z,4.40
2019-03-13T07:40:19.668Z,4.40
2019-03-13T07:43:03.114Z,4.70
2019-03-13T07:45:50.920Z,4.90
2019-03-13T07:48:31.411Z,4.90
2019-03-13T07:51:10.569Z,5.10
2019-03-13T07:53:50.462Z,4.90
2019-03-13T07:56:42.574Z,5.30
2019-03-13T07:59:31.867Z,5.30
2019-03-13T08:02:19.816Z,5.40
2019-03-13T08:05:09.086Z,5.40
2019-03-13T08:07:54.769Z,5.50
2019-03-13T08:10:50.171Z,5.20
2019-03-13T08:13:42.487Z,5.80
2019-03-13T08:16:20.791Z,6.10
2019-03-13T08:19:10.077Z,6.10
2019-03-13T08:21:53.226Z,6.30
2019-03-13T08:24:45.278Z,6.20
2019-03-13T08:27:40.778Z,6.00
2019-03-13T08:30:27.611Z,6.00
2019-03-13T08:33:15.331Z,5.80
2019-03-13T08:36:03.199Z,6.30
2019-03-13T08:38:50.402Z,6.20
2019-03-13T08:41:35.406Z,6.30
2019-03-13T08:44:27.155Z,6.60
2019-03-13T08:47:16.430Z,6.60
2019-03-13T08:50:05.787Z,6.50
2019-03-13T08:52:48.247Z,6.70
2019-03-13T08:55:43.644Z,6.60
2019-03-13T08:58:41.827Z,6.20
2019-03-13T09:01:37.448Z,6.70
2019-03-13T09:04:17.095Z,6.80
2019-03-13T09:07:05.100Z,6.90
2019-03-13T09:09:54.390Z,6.90
2019-03-13T09:12:46.713Z,7.20
2019-03-13T09:15:31.369Z,7.00
2019-03-13T09:18:16.898Z,7.00
2019-03-13T09:21:00.330Z,6.90
2019-03-13T09:23:44.501Z,7.10
2019-03-13T09:26:32.985Z,6.90
2019-03-13T09:29:21.348Z,7.00
2019-03-13T09:32:20.222Z,7.00
2019-03-13T09:35:21.918Z,6.90
2019-03-13T09:38:00.430Z,6.70
2019-03-13T09:40:46.262Z,6.50
2019-03-13T09:43:47.679Z,6.30
2019-03-13T09:46:41.327Z,6.70
2019-03-13T09:49:30.639Z,6.30
2019-03-13T09:52:19.933Z,6.20
2019-03-13T09:55:24.345Z,6.30
2019-03-13T09:58:01.879Z,6.70
2019-03-13T10:00:47.817Z,6.90
2019-03-13T10:03:43.094Z,6.80
2019-03-13T10:06:31.027Z,6.80
2019-03-13T10:09:15.081Z,7.40
2019-03-13T10:12:04.310Z,7.40
2019-03-13T10:14:54.649Z,7.30
2019-03-13T10:17:30.384Z,7.00
2019-03-13T10:20:18.626Z,7.00
2019-03-13T10:22:59.136Z,6.90
2019-03-13T10:25:37.321Z,6.70
2019-03-13T10:28:29.811Z,7.00
2019-03-13T10:31:37.510Z,7.10
2019-03-13T10:34:19.050Z,7.00
2019-03-13T10:36:58.801Z,7.20
2019-03-13T10:39:48.166Z,7.60
2019-03-13T10:42:43.640Z,7.70
2019-03-13T10:45:51.441Z,7.50
2019-03-13T10:48:53.102Z,7.30
2019-03-13T10:51:39.229Z,7.30
2019-03-13T10:54:25.031Z,7.10
2019-03-13T10:57:17.966Z,7.40
2019-03-13T11:00:13.142Z,7.20
2019-03-13T11:03:08.201Z,7.60
2019-03-13T11:05:57.489Z,8.00
2019-03-13T11:08:52.564Z,7.70
2019-03-13T11:11:33.005Z,7.90
2019-03-13T11:14:22.087Z,8.10
2019-03-13T11:17:11.361Z,8.50
2019-03-13T11:20:03.683Z,8.30
2019-03-13T11:22:58.827Z,8.30
2019-03-13T11:26:03.331Z,8.10
2019-03-13T11:28:55.328Z,8.10
2019-03-13T11:31:43.167Z,8.10
2019-03-13T11:34:41.604Z,7.90
2019-03-13T11:37:33.797Z,7.40
2019-03-13T11:40:42.114Z,7.30
2019-03-13T11:43:32.038Z,6.70
2019-03-13T11:46:21.410Z,6.50
2019-03-13T11:49:16.858Z,6.20
2019-03-13T11:52:12.151Z,5.70
2019-03-13T11:54:55.245Z,6.10
2019-03-13T11:57:47.288Z,6.00
2019-03-13T12:00:35.873Z,6.00
2019-03-13T12:03:37.690Z,5.90
2019-03-13T12:06:33.173Z,5.80
2019-03-13T12:09:21.074Z,5.80
2019-03-13T12:12:09.512Z,5.80
2019-03-13T12:15:02.046Z,5.60
2019-03-13T12:17:42.821Z,5.70
2019-03-13T12:20:35.570Z,5.60
2019-03-13T12:23:27.806Z,5.70
2019-03-13T12:26:09.617Z,5.60
2019-03-13T12:28:52.438Z,5.50
2019-03-13T12:31:45.832Z,5.50
2019-03-13T12:34:38.378Z,5.50
2019-03-13T12:37:33.668Z,5.50
2019-03-13T12:40:22.002Z,5.40
2019-03-13T12:43:10.081Z,5.30
2019-03-13T12:46:02.108Z,5.30
2019-03-13T12:48:39.699Z,5.40
2019-03-13T12:51:29.044Z,5.40
2019-03-13T12:54:21.270Z,5.40
2019-03-13T12:57:17.036Z,5.30
2019-03-13T13:00:06.377Z,5.60
2019-03-13T13:02:54.768Z,5.90
2019-03-13T13:05:41.803Z,5.60
2019-03-13T13:08:29.594Z,5.80
2019-03-13T13:11:21.766Z,5.80
2019-03-13T13:14:08.292Z,6.00
2019-03-13T13:16:57.574Z,6.10
2019-03-13T13:19:27.974Z,6.00
2019-03-13T13:21:58.433Z,5.90
2019-03-13T13:24:28.859Z,5.90
2019-03-13T13:26:59.320Z,5.80
2019-03-13T13:29:29.809Z,6.10
2019-03-13T13:32:00.222Z,6.10
2019-03-13T13:34:30.634Z,6.00
2019-03-13T13:37:01.042Z,6.20
2019-03-13T13:39:31.624Z,5.70
2019-03-13T13:42:02.108Z,5.60
2019-03-13T13:44:32.511Z,5.50
2019-03-13T13:47:02.990Z,5.50
2019-03-13T13:49:33.506Z,5.50
2019-03-13T13:52:03.988Z,5.50
2019-03-13T13:54:34.443Z,5.50
2019-03-13T13:57:04.968Z,5.70
2019-03-13T13:59:35.530Z,5.60
2019-03-13T14:02:06.116Z,5.40
2019-03-13T14:04:36.517Z,5.60
2019-03-13T14:07:07.034Z,5.50
2019-03-13T14:09:37.450Z,5.30
2019-03-13T14:12:08.031Z,5.50
2019-03-13T14:14:38.516Z,5.10
2019-03-13T14:17:08.957Z,5.10
2019-03-13T14:19:39.390Z,5.10
2019-03-13T14:22:09.810Z,5.10
2019-03-13T14:24:40.261Z,5.30
2019-03-13T14:27:14.772Z,5.00
2019-03-13T14:29:42.793Z,5.00
2019-03-13T14:32:13.253Z,5.00
2019-03-13T14:34:43.729Z,5.30
2019-03-13T14:37:14.150Z,5.00
2019-03-13T14:39:44.605Z,5.20
2019-03-13T14:42:15.007Z,4.80
2019-03-13T14:44:45.430Z,4.80
2019-03-13T14:47:15.860Z,5.00
2019-03-13T14:49:46.290Z,4.80
2019-03-13T14:52:16.742Z,5.00
2019-03-13T14:54:47.270Z,5.20
2019-03-13T14:57:17.694Z,5.20
2019-03-13T14:59:48.101Z,5.20
2019-03-13T15:02:18.550Z,5.00
2019-03-13T15:04:49.014Z,5.00
2019-03-13T15:07:19.478Z,5.10
2019-03-13T15:09:49.930Z,5.30
2019-03-13T15:12:20.337Z,5.30
2019-03-13T15:14:50.836Z,5.60
2019-03-13T15:17:21.258Z,5.40
2019-03-13T15:19:51.826Z,5.40
2019-03-13T15:22:22.251Z,5.50
2019-03-13T15:24:52.737Z,5.20
2019-03-13T15:27:23.170Z,5.50
2019-03-13T15:29:53.592Z,5.20
2019-03-13T15:32:24.002Z,5.20
2019-03-13T15:34:54.440Z,5.20
2019-03-13T15:37:24.899Z,5.40
2019-03-13T15:39:55.385Z,5.10
2019-03-13T15:44:38.074Z,5.10
2019-03-13T15:47:08.459Z,5.10
2019-03-13T15:49:38.891Z,5.00
2019-03-13T15:52:09.418Z,5.00
2019-03-13T15:57:05.210Z,5.10
2019-03-13T15:59:35.663Z,5.00
2019-03-13T16:02:06.171Z,5.20
2019-03-13T16:04:36.674Z,5.00
2019-03-13T16:07:07.121Z,5.00
2019-03-13T16:09:37.535Z,5.10
2019-03-13T16:12:08.016Z,5.20
2019-03-13T16:14:38.414Z,5.10
2019-03-13T16:17:08.826Z,4.90
2019-03-13T16:19:39.490Z,4.90
2019-03-13T16:22:10.277Z,4.80
2019-03-13T16:24:40.746Z,4.90
2019-03-13T16:27:11.226Z,4.90
2019-03-13T16:29:41.786Z,4.90
2019-03-13T16:32:13.877Z,4.70
2019-03-13T16:34:44.346Z,4.60
2019-03-13T16:37:14.791Z,4.70
2019-03-13T16:39:45.242Z,4.60
2019-03-13T16:42:15.711Z,4.50
2019-03-13T16:44:46.130Z,4.40
2019-03-13T16:47:16.725Z,4.60
2019-03-13T16:49:47.175Z,4.40
2019-03-13T16:52:17.622Z,4.40
2019-03-13T16:54:48.101Z,4.50
2019-03-13T16:57:18.568Z,4.40
2019-03-13T17:00:00.094Z,4.40
2019-03-13T17:02:21.181Z,4.30
2019-03-13T17:04:51.755Z,4.20
2019-03-13T17:07:22.234Z,4.40
2019-03-13T17:09:52.666Z,3.90
2019-03-13T17:12:23.155Z,3.80
2019-03-13T17:14:53.574Z,3.70
2019-03-13T17:17:24.162Z,3.10
2019-03-13T17:19:54.607Z,2.90
2019-03-13T17:22:25.215Z,2.80
2019-03-13T17:24:55.715Z,2.60
2019-03-13T17:27:26.166Z,2.40
2019-03-13T17:29:56.668Z,2.40
2019-03-13T17:32:27.117Z,2.40
2019-03-13T17:34:57.562Z,2.20
2019-03-13T17:37:28.111Z,2.00
2019-03-13T17:39:58.531Z,2.20
2019-03-13T17:42:29.121Z,2.00
2019-03-13T17:44:59.555Z,1.80
2019-03-13T17:47:30.007Z,1.70
2019-03-13T17:50:00.474Z,1.70
2019-03-13T17:52:30.893Z,1.70
2019-03-13T17:55:01.355Z,1.40
2019-03-13T17:57:32.311Z,1.60
2019-03-13T18:00:03.012Z,1.70
2019-03-13T18:02:33.613Z,1.50
2019-03-13T18:05:04.207Z,1.50
2019-03-13T18:07:34.688Z,1.60
2019-03-13T18:10:05.518Z,1.90
2019-03-13T18:12:35.940Z,1.90
2019-03-13T18:15:06.907Z,2.00
2019-03-13T18:17:37.405Z,2.00
2019-03-13T18:20:10.041Z,2.00
2019-03-13T18:22:40.579Z,2.10
2019-03-13T18:25:11.499Z,2.10
2019-03-13T18:27:42.025Z,2.30
2019-03-13T18:30:20.733Z,2.30
2019-03-13T18:32:51.374Z,2.40
2019-03-13T18:35:22.162Z,2.50
2019-03-13T18:37:52.694Z,2.70
2019-03-13T18:40:24.084Z,2.90
2019-03-13T18:42:55.550Z,3.00
2019-03-13T18:45:26.526Z,2.90
2019-03-13T18:47:57.053Z,3.00
2019-03-13T18:50:28.151Z,2.80
2019-03-13T18:52:58.787Z,2.90
2019-03-13T18:55:29.775Z,2.70
2019-03-13T18:58:00.201Z,2.70
2019-03-13T19:00:31.186Z,2.80
2019-03-13T19:03:01.838Z,2.90
2019-03-13T19:05:32.419Z,2.90
2019-03-13T19:08:03.034Z,3.00
2019-03-13T19:10:33.867Z,3.00
2019-03-13T19:13:04.560Z,3.20
2019-03-13T19:15:35.087Z,3.20
2019-03-13T19:18:05.964Z,3.10
2019-03-13T19:20:36.401Z,3.00
2019-03-13T19:23:06.828Z,3.10
2019-03-13T19:25:37.386Z,3.10
2019-03-13T19:28:07.968Z,3.10
2019-03-13T19:30:38.626Z,2.80
2019-03-13T19:33:09.194Z,3.00
2019-03-13T19:35:40.004Z,3.20
2019-03-13T19:38:10.605Z,2.90
2019-03-13T19:40:41.424Z,2.90
2019-03-13T19:43:11.835Z,3.10
2019-03-13T19:45:43.555Z,2.90
2019-03-13T19:48:14.315Z,3.10
2019-03-13T19:50:44.791Z,3.10
2019-03-13T19:53:15.263Z,3.00
2019-03-13T19:55:46.326Z,2.80
2019-03-13T19:58:16.957Z,3.00
2019-03-13T20:00:47.519Z,2.80
2019-03-13T20:03:18.144Z,2.90
2019-03-13T20:05:48.575Z,2.70
2019-03-13T20:08:19.094Z,2.70
2019-03-13T20:10:49.566Z,2.70
2019-03-13T20:13:19.989Z,2.80
2019-03-13T20:15:50.559Z,2.70
2019-03-13T20:18:20.967Z,2.60
2019-03-13T20:20:51.424Z,2.50
2019-03-13T20:23:21.961Z,2.50
2019-03-13T20:25:52.430Z,2.60
2019-03-13T20:28:23.047Z,2.50
2019-03-13T20:30:54.058Z,2.50
2019-03-13T20:33:24.716Z,2.40
2019-03-13T20:35:55.204Z,2.40
2019-03-13T20:38:26.140Z,2.30
2019-03-13T20:40:56.650Z,2.40
2019-03-13T20:43:27.269Z,2.10
2019-03-13T20:45:57.690Z,2.10
2019-03-13T20:48:28.119Z,2.00
2019-03-13T20:50:58.519Z,2.10
2019-03-13T20:53:28.962Z,2.20
2019-03-13T20:55:59.430Z,2.20
2019-03-13T20:58:30.391Z,2.10
2019-03-13T21:01:01.343Z,1.90
2019-03-13T21:03:31.923Z,2.00
2019-03-13T21:06:02.421Z,2.10
2019-03-13T21:08:32.853Z,2.00
2019-03-13T21:11:03.272Z,1.90
2019-03-13T21:13:33.751Z,1.90
2019-03-13T21:16:04.168Z,2.10
2019-03-13T21:18:34.642Z,1.90
2019-03-13T21:21:05.158Z,1.70
2019-03-13T21:23:36.645Z,1.70
2019-03-13T21:26:07.498Z,1.60
2019-03-13T21:28:38.049Z,1.50
2019-03-13T21:31:08.624Z,1.40
2019-03-13T21:33:39.043Z,1.60
2019-03-13T21:36:09.487Z,1.30
2019-03-13T21:38:39.896Z,1.50
2019-03-13T21:41:10.380Z,1.10
2019-03-13T21:43:40.794Z,1.10
2019-03-13T21:46:11.244Z,1.00
2019-03-13T21:48:41.657Z,1.00
2019-03-13T21:51:12.204Z,1.10
2019-03-13T21:53:42.650Z,0.90
2019-03-13T21:56:13.079Z,1.00
2019-03-13T21:58:43.529Z,0.80
2019-03-13T22:01:19.804Z,0.80
2019-03-13T22:03:46.150Z,0.60
2019-03-13T22:06:28.164Z,0.80
2019-03-13T22:08:48.514Z,0.60
2019-03-13T22:11:18.850Z,0.70
2019-03-13T22:13:49.166Z,0.80
2019-03-13T22:16:19.540Z,0.90
2019-03-13T22:18:49.857Z,0.90
2019-03-13T22:21:20.163Z,0.80
2019-03-13T22:23:50.490Z,0.70
2019-03-13T22:26:20.935Z,0.70
2019-03-13T22:28:51.321Z,0.60
2019-03-13T22:31:21.746Z,0.90
2019-03-13T22:33:52.204Z,0.80
2019-03-13T22:36:22.495Z,1.30
2019-03-13T22:38:52.780Z,1.40
2019-03-13T22:41:23.116Z,1.30
2019-03-13T22:43:53.451Z,1.50
2019-03-13T22:46:23.766Z,1.50
2019-03-13T22:48:58.454Z,1.80
2019-03-13T22:51:25.995Z,1.80
2019-03-13T22:53:56.299Z,1.80
2019-03-13T22:56:26.592Z,2.00
2019-03-13T22:58:56.922Z,2.10
2019-03-13T23:01:27.490Z,2.10
2019-03-13T23:03:58.027Z,2.20
2019-03-13T23:06:28.343Z,2.00
2019-03-13T23:08:58.664Z,2.20
2019-03-13T23:11:29.024Z,2.20
2019-03-13T23:13:59.330Z,2.10
2019-03-13T23:16:29.657Z,2.30
2019-03-13T23:19:00.094Z,2.40
2019-03-13T23:21:30.482Z,2.40
2019-03-13T23:24:00.840Z,2.20
2019-03-13T23:26:31.170Z,2.30
2019-03-13T23:29:01.564Z,2.30
2019-03-13T23:31:31.883Z,2.10
2019-03-13T23:34:02.495Z,2.40
2019-03-13T23:36:32.783Z,2.50
2019-03-13T23:39:03.175Z,2.60
2019-03-13T23:41:33.446Z,2.70
2019-03-13T23:44:03.836Z,2.70
2019-03-13T23:46:34.154Z,2.60
2019-03-13T23:49:04.440Z,2.50
2019-03-13T23:51:34.881Z,2.70
2019-03-13T23:54:05.223Z,2.40
2019-03-13T23:56:35.540Z,2.20
2019-03-13T23:59:05.828Z,1.90
